createdAt,value
2022-11-20T00:03:49.606Z,24.30
2022-11-20T00:07:51.383Z,26.30
2022-11-20T00:11:52.457Z,25.30
2022-11-20T00:16:01.657Z,25.20
2022-11-20T00:20:03.327Z,22.43
2022-11-20T00:24:05.063Z,23.47
2022-11-20T00:28:06.235Z,23.70
2022-11-20T00:32:07.310Z,23.40
2022-11-20T00:36:11.533Z,23.37
2022-11-20T00:40:13.208Z,24.73
2022-11-20T00:44:14.390Z,26.73
2022-11-20T00:48:15.444Z,25.23
2022-11-20T00:52:16.612Z,21.80
2022-11-20T00:56:19.418Z,25.10
2022-11-20T01:00:20.481Z,25.10
2022-11-20T01:04:21.719Z,25.90
2022-11-20T01:08:22.772Z,24.57
2022-11-20T01:12:23.871Z,22.47
2022-11-20T01:16:28.243Z,22.47
2022-11-20T01:20:29.415Z,20.40
2022-11-20T01:24:30.529Z,25.70
2022-11-20T01:28:32.390Z,21.43
2022-11-20T01:32:33.567Z,21.37
2022-11-20T01:36:37.233Z,21.97
2022-11-20T01:40:38.315Z,23.30
2022-11-20T01:44:55.018Z,23.03
2022-11-20T01:49:21.370Z,27.70
2022-11-20T01:53:26.591Z,24.40
2022-11-20T01:57:31.463Z,25.97
2022-11-20T02:01:32.872Z,26.70
2022-11-20T02:05:56.273Z,23.70
2022-11-20T02:09:58.911Z,23.73
2022-11-20T02:14:00.648Z,22.50
2022-11-20T02:18:02.228Z,23.10
2022-11-20T02:22:10.146Z,24.10
2022-11-20T02:26:14.762Z,23.63
2022-11-20T02:30:16.493Z,24.63
2022-11-20T02:34:17.665Z,23.47
2022-11-20T02:38:18.864Z,24.23
2022-11-20T02:42:20.115Z,23.07
2022-11-20T02:46:21.293Z,21.40
2022-11-20T02:50:22.481Z,22.13
2022-11-20T02:54:24.551Z,22.23
2022-11-20T02:58:25.634Z,22.20
2022-11-20T03:02:31.402Z,19.13
2022-11-20T03:06:32.870Z,21.07
2022-11-20T03:10:33.943Z,21.73
2022-11-20T03:14:35.017Z,23.60
2022-11-20T03:18:36.276Z,22.00
2022-11-20T03:22:37.667Z,20.20
2022-11-20T03:26:39.314Z,22.50
2022-11-20T03:30:41.175Z,18.10
2022-11-20T03:34:42.394Z,20.20
2022-11-20T03:38:44.118Z,20.80
2022-11-20T03:42:45.217Z,19.77
2022-11-20T03:46:46.302Z,19.97
2022-11-20T03:50:48.112Z,21.50
2022-11-20T03:54:49.256Z,20.83
2022-11-20T03:58:50.916Z,18.97
2022-11-20T04:02:51.971Z,21.73
2022-11-20T04:06:53.071Z,19.67
2022-11-20T04:10:54.196Z,18.70
2022-11-20T04:14:55.371Z,19.73
2022-11-20T04:19:02.401Z,19.70
2022-11-20T04:23:03.498Z,19.73
2022-11-20T04:27:04.550Z,20.83
2022-11-20T04:31:14.879Z,20.73
2022-11-20T04:35:16.045Z,18.20
2022-11-20T04:39:17.384Z,19.53
2022-11-20T04:43:18.538Z,17.90
2022-11-20T04:47:19.832Z,18.60
2022-11-20T04:51:21.088Z,19.90
2022-11-20T04:55:22.186Z,18.73
2022-11-20T04:59:23.801Z,18.90
2022-11-20T05:03:25.138Z,19.37
2022-11-20T05:07:26.248Z,19.40
2022-11-20T05:11:29.306Z,20.60
2022-11-20T05:15:30.386Z,17.97
2022-11-20T05:19:31.570Z,17.17
2022-11-20T05:23:33.657Z,18.97
2022-11-20T05:27:35.033Z,18.77
2022-11-20T05:31:37.600Z,19.63
2022-11-20T05:35:38.773Z,18.63
2022-11-20T05:39:39.839Z,18.87
2022-11-20T05:43:43.305Z,18.43
2022-11-20T05:51:12.565Z,17.97
2022-11-20T05:55:13.776Z,17.40
2022-11-20T05:59:14.965Z,18.70
2022-11-20T06:03:16.171Z,18.63
2022-11-20T06:07:17.399Z,18.70
2022-11-20T06:11:18.879Z,18.20
2022-11-20T06:15:20.058Z,19.80
2022-11-20T06:19:21.555Z,18.93
2022-11-20T06:23:22.939Z,18.50
2022-11-20T06:27:24.135Z,20.10
2022-11-20T06:31:26.322Z,20.87
2022-11-20T06:35:27.610Z,21.70
2022-11-20T06:39:28.699Z,23.07
2022-11-20T06:43:30.075Z,21.63
2022-11-20T06:47:31.159Z,19.50
2022-11-20T06:51:32.371Z,20.67
2022-11-20T06:55:33.567Z,18.20
2022-11-20T06:59:34.858Z,25.73
2022-11-20T07:03:36.469Z,22.30
2022-11-20T07:07:37.752Z,25.43
2022-11-20T07:11:39.462Z,25.90
2022-11-20T07:15:40.632Z,27.63
2022-11-20T07:19:43.136Z,25.30
2022-11-20T07:23:44.360Z,23.47
2022-11-20T07:27:45.542Z,23.30
2022-11-20T07:31:46.740Z,24.40
2022-11-20T07:35:47.953Z,23.97
2022-11-20T07:39:49.145Z,23.83
2022-11-20T07:43:50.333Z,24.20
2022-11-20T07:47:51.829Z,25.23
2022-11-20T07:51:59.296Z,25.30
2022-11-20T07:56:02.976Z,24.77
2022-11-20T08:00:08.730Z,21.47
2022-11-20T08:04:10.006Z,21.50
2022-11-20T08:08:11.296Z,24.53
2022-11-20T08:12:39.845Z,21.80
2022-11-20T08:16:46.262Z,22.30
2022-11-20T08:20:47.448Z,20.73
2022-11-20T08:24:48.753Z,21.93
2022-11-20T08:28:55.876Z,22.63
2022-11-20T08:33:03.714Z,22.27
2022-11-20T08:37:04.915Z,19.33
2022-11-20T08:41:08.319Z,16.97
2022-11-20T08:45:09.771Z,15.90
2022-11-20T08:49:12.780Z,15.37
2022-11-20T08:53:13.944Z,14.93
2022-11-20T08:57:15.045Z,15.03
2022-11-20T09:01:16.240Z,15.10
2022-11-20T09:05:17.617Z,13.97
2022-11-20T09:09:19.466Z,16.17
2022-11-20T09:13:22.897Z,12.43
2022-11-20T09:17:24.102Z,18.93
2022-11-20T09:21:25.332Z,15.60
2022-11-20T09:25:26.778Z,13.43
2022-11-20T09:29:27.960Z,14.87
2022-11-20T09:33:29.073Z,14.00
2022-11-20T09:37:30.538Z,15.03
2022-11-20T09:41:41.822Z,13.63
2022-11-20T09:45:59.050Z,13.80
2022-11-20T09:50:25.583Z,15.07
2022-11-20T09:54:33.311Z,13.83
2022-11-20T09:58:44.185Z,16.23
2022-11-20T10:03:00.824Z,16.00
2022-11-20T10:07:31.357Z,18.37
2022-11-20T10:11:35.485Z,17.50
2022-11-20T10:15:58.836Z,16.97
2022-11-20T10:20:22.419Z,17.57
2022-11-20T10:24:44.368Z,16.07
2022-11-20T10:28:57.435Z,18.20
2022-11-20T10:32:58.873Z,15.57
2022-11-20T10:37:03.899Z,16.33
2022-11-20T10:41:24.598Z,15.73
2022-11-20T10:45:29.598Z,15.83
2022-11-20T10:49:33.399Z,16.20
2022-11-20T10:53:44.499Z,16.20
2022-11-20T10:58:04.777Z,16.10
2022-11-20T11:02:20.891Z,17.23
2022-11-20T11:06:34.920Z,18.10
2022-11-20T11:10:49.282Z,20.17
2022-11-20T11:14:56.722Z,21.47
2022-11-20T11:19:05.996Z,19.07
2022-11-20T11:23:11.388Z,16.77
2022-11-20T11:27:17.934Z,20.47
2022-11-20T11:31:24.102Z,16.97
2022-11-20T11:35:28.265Z,16.57
2022-11-20T11:39:31.590Z,15.77
2022-11-20T11:43:56.080Z,15.47
2022-11-20T11:48:00.678Z,16.07
2022-11-20T11:52:08.177Z,19.53
2022-11-20T11:56:11.562Z,25.67
2022-11-20T12:00:16.673Z,20.33
2022-11-20T12:04:30.778Z,18.23
2022-11-20T12:08:50.690Z,20.00
2022-11-20T12:12:55.678Z,19.40
2022-11-20T12:16:57.969Z,16.30
2022-11-20T12:21:02.965Z,16.00
2022-11-20T12:25:20.244Z,17.17
2022-11-20T12:29:31.150Z,16.07
2022-11-20T12:33:53.969Z,15.83
2022-11-20T12:38:25.031Z,16.00
2022-11-20T12:43:03.852Z,16.23
2022-11-20T12:47:25.756Z,16.30
2022-11-20T12:51:47.746Z,17.20
2022-11-20T12:55:58.963Z,15.57
2022-11-20T13:00:11.099Z,17.77
2022-11-20T13:04:19.064Z,17.10
2022-11-20T13:08:26.075Z,14.10
2022-11-20T13:12:43.432Z,15.00
2022-11-20T13:16:53.885Z,16.07
2022-11-20T13:20:55.301Z,16.27
2022-11-20T13:24:56.387Z,15.73
2022-11-20T13:29:12.193Z,14.80
2022-11-20T13:33:33.360Z,33.00
2022-11-20T13:37:36.937Z,17.13
2022-11-20T13:41:40.330Z,16.27
2022-11-20T13:45:41.512Z,15.87
2022-11-20T13:49:45.418Z,15.57
2022-11-20T13:53:55.453Z,15.40
2022-11-20T13:58:12.113Z,15.30
2022-11-20T14:02:18.693Z,14.10
2022-11-20T14:06:23.681Z,15.87
2022-11-20T14:10:31.808Z,15.13
2022-11-20T14:14:33.585Z,15.23
2022-11-20T14:18:34.672Z,16.80
2022-11-20T14:22:35.772Z,13.63
2022-11-20T14:26:40.156Z,13.37
2022-11-20T14:30:47.535Z,13.60
2022-11-20T14:34:50.724Z,13.57
2022-11-20T14:38:53.408Z,14.23
2022-11-20T14:42:55.220Z,15.47
2022-11-20T14:46:58.022Z,13.73
2022-11-20T14:50:59.324Z,13.37
2022-11-20T14:55:00.535Z,13.27
2022-11-20T14:59:01.772Z,12.73
2022-11-20T15:03:02.980Z,13.57
2022-11-20T15:07:04.626Z,11.93
2022-11-20T15:15:12.407Z,15.50
2022-11-20T15:19:21.060Z,13.77
2022-11-20T15:23:22.735Z,15.20
2022-11-20T15:27:24.120Z,14.40
2022-11-20T15:31:30.264Z,15.60
2022-11-20T15:35:31.459Z,17.60
2022-11-20T15:39:32.567Z,16.60
2022-11-20T15:43:34.095Z,12.40
2022-11-20T15:47:35.883Z,12.63
2022-11-20T15:51:40.383Z,13.00
2022-11-20T15:55:41.534Z,12.67
2022-11-20T15:59:42.719Z,13.93
2022-11-20T16:03:43.960Z,12.83
2022-11-20T16:07:45.141Z,11.73
2022-11-20T16:11:46.338Z,11.63
2022-11-20T16:15:57.355Z,14.07
2022-11-20T16:19:58.545Z,17.10
2022-11-20T16:24:05.473Z,14.17
2022-11-20T16:28:06.670Z,11.70
2022-11-20T16:32:08.959Z,11.67
2022-11-20T16:36:11.897Z,10.30
2022-11-20T16:40:12.954Z,11.70
2022-11-20T16:44:14.674Z,32.80
2022-11-20T16:48:16.670Z,68.50
2022-11-20T16:52:17.934Z,28.70
2022-11-20T16:56:21.081Z,19.40
2022-11-20T17:00:22.382Z,16.27
2022-11-20T17:04:23.654Z,23.43
2022-11-20T17:08:29.545Z,15.57
2022-11-20T17:12:30.675Z,13.20
2022-11-20T17:16:32.126Z,12.90
2022-11-20T17:20:33.293Z,14.97
2022-11-20T17:24:34.747Z,14.67
2022-11-20T17:28:37.434Z,13.20
2022-11-20T17:32:39.094Z,10.53
2022-11-20T17:36:45.265Z,9.77
2022-11-20T17:40:45.526Z,9.40
2022-11-20T17:44:46.700Z,12.57
2022-11-20T17:48:49.125Z,10.37
2022-11-20T17:52:50.308Z,7.20
2022-11-20T17:57:10.124Z,7.30
2022-11-20T18:01:11.388Z,7.20
2022-11-20T18:05:12.796Z,9.43
2022-11-20T18:09:14.470Z,5.60
2022-11-20T18:13:15.533Z,5.70
2022-11-20T18:17:16.706Z,5.50
2022-11-20T18:21:17.764Z,4.80
2022-11-20T18:25:18.845Z,3.93
2022-11-20T18:29:19.910Z,3.60
2022-11-20T18:33:25.450Z,4.20
2022-11-20T18:37:23.961Z,3.60
2022-11-20T18:41:46.169Z,4.27
2022-11-20T18:45:47.254Z,3.90
2022-11-20T18:49:51.722Z,3.70
2022-11-20T18:53:52.810Z,4.80
2022-11-20T18:57:54.612Z,4.63
2022-11-20T19:01:55.735Z,4.20
2022-11-20T19:05:56.975Z,4.40
2022-11-20T19:10:02.344Z,5.03
2022-11-20T19:14:01.282Z,4.60
2022-11-20T19:18:02.559Z,4.57
2022-11-20T19:22:03.941Z,5.00
2022-11-20T19:26:06.315Z,4.90
2022-11-20T19:30:08.609Z,5.90
2022-11-20T19:34:11.418Z,5.40
2022-11-20T19:38:12.632Z,5.27
2022-11-20T19:42:13.829Z,4.93
2022-11-20T19:46:17.470Z,4.70
2022-11-20T19:50:18.729Z,4.83
2022-11-20T19:54:19.857Z,5.50
2022-11-20T19:58:21.190Z,7.70
2022-11-20T20:02:22.381Z,4.80
2022-11-20T20:06:25.191Z,5.17
2022-11-20T20:10:27.021Z,4.17
2022-11-20T20:14:28.125Z,3.20
2022-11-20T20:18:29.386Z,3.50
2022-11-20T20:22:30.508Z,3.13
2022-11-20T20:26:32.039Z,2.73
2022-11-20T20:30:36.355Z,2.60
2022-11-20T20:34:37.463Z,3.13
2022-11-20T20:38:38.936Z,3.60
2022-11-20T20:42:40.026Z,3.40
2022-11-20T20:46:41.233Z,3.10
2022-11-20T20:50:42.834Z,2.97
2022-11-20T20:54:44.037Z,3.10
2022-11-20T20:58:45.347Z,3.87
2022-11-20T21:02:46.558Z,2.60
2022-11-20T21:06:47.730Z,2.87
2022-11-20T21:10:49.192Z,2.40
2022-11-20T21:14:50.466Z,2.23
2022-11-20T21:18:51.631Z,2.63
2022-11-20T21:22:52.870Z,2.80
2022-11-20T21:26:54.863Z,2.70
2022-11-20T21:31:17.841Z,3.43
2022-11-20T21:35:18.948Z,2.33
2022-11-20T21:39:21.231Z,3.07
2022-11-20T21:43:22.464Z,2.60
2022-11-20T21:47:23.755Z,2.50
2022-11-20T21:51:27.485Z,2.93
2022-11-20T21:55:28.791Z,2.93
2022-11-20T21:59:30.384Z,3.00
2022-11-20T22:03:31.706Z,2.73
2022-11-20T22:07:33.101Z,2.90
2022-11-20T22:11:34.573Z,2.70
2022-11-20T22:15:59.305Z,3.23
2022-11-20T22:19:39.092Z,3.10
2022-11-20T22:23:40.860Z,2.40
2022-11-20T22:27:42.109Z,3.07
2022-11-20T22:31:43.746Z,3.13
2022-11-20T22:35:44.884Z,3.10
2022-11-20T22:39:45.959Z,2.77
2022-11-20T22:43:47.371Z,3.10
2022-11-20T22:47:48.544Z,3.30
2022-11-20T22:51:49.633Z,2.70
2022-11-20T22:55:50.814Z,2.50
2022-11-20T22:59:52.182Z,2.70
2022-11-20T23:03:58.995Z,3.70
2022-11-20T23:08:00.069Z,3.67
2022-11-20T23:12:01.214Z,3.07
2022-11-20T23:16:05.403Z,2.93
2022-11-20T23:20:08.188Z,3.50
2022-11-20T23:24:09.789Z,3.03
2022-11-20T23:28:10.961Z,3.57
2022-11-20T23:32:12.035Z,3.33
2022-11-20T23:36:13.560Z,3.17
2022-11-20T23:40:14.790Z,3.43
2022-11-20T23:44:15.931Z,3.53
2022-11-20T23:48:18.240Z,3.40
2022-11-20T23:52:19.525Z,3.57
2022-11-20T23:56:20.694Z,3.00
